createdAt,value
2022-12-29T00:00:54.263Z,6.80
2022-12-29T00:03:41.348Z,7.30
2022-12-29T00:06:29.024Z,6.40
2022-12-29T00:09:17.290Z,5.90
2022-12-29T00:12:05.358Z,6.90
2022-12-29T00:15:21.400Z,5.40
2022-12-29T00:18:09.067Z,5.70
2022-12-29T00:21:14.604Z,5.80
2022-12-29T00:24:20.771Z,5.80
2022-12-29T00:27:31.553Z,6.70
2022-12-29T00:30:40.149Z,7.10
2022-12-29T00:33:50.048Z,6.80
2022-12-29T00:36:40.991Z,5.10
2022-12-29T00:39:47.165Z,5.10
2022-12-29T00:42:53.146Z,5.30
2022-12-29T00:45:42.399Z,4.90
2022-12-29T00:48:48.265Z,5.50
2022-12-29T00:51:35.245Z,4.40
2022-12-29T00:54:22.519Z,6.10
2022-12-29T00:57:10.679Z,4.50
2022-12-29T00:59:57.607Z,4.90
2022-12-29T01:02:44.439Z,5.40
2022-12-29T01:05:31.328Z,5.10
2022-12-29T01:08:18.068Z,4.90
2022-12-29T01:11:12.509Z,5.50
2022-12-29T01:13:59.333Z,7.30
2022-12-29T01:16:46.954Z,4.40
2022-12-29T01:19:34.308Z,3.90
2022-12-29T01:22:21.084Z,6.60
2022-12-29T01:25:09.139Z,6.70
2022-12-29T01:27:58.934Z,8.60
2022-12-29T01:30:46.394Z,6.90
2022-12-29T01:33:34.318Z,7.60
2022-12-29T01:36:21.302Z,9.30
2022-12-29T01:39:09.114Z,7.80
2022-12-29T01:41:56.074Z,6.40
2022-12-29T01:44:57.053Z,8.60
2022-12-29T01:47:49.464Z,7.00
2022-12-29T01:50:41.644Z,6.00
2022-12-29T01:53:33.983Z,3.80
2022-12-29T01:56:22.385Z,5.00
2022-12-29T01:59:16.698Z,6.60
2022-12-29T02:02:06.945Z,7.50
2022-12-29T02:05:04.163Z,7.10
2022-12-29T02:07:53.005Z,5.30
2022-12-29T02:10:41.490Z,7.90
2022-12-29T02:13:29.311Z,7.80
2022-12-29T02:16:52.266Z,7.90
2022-12-29T02:19:57.347Z,5.30
2022-12-29T02:23:06.466Z,7.50
2022-12-29T02:26:15.330Z,6.90
2022-12-29T02:29:21.011Z,7.10
2022-12-29T02:32:31.863Z,7.40
2022-12-29T02:35:20.609Z,7.30
2022-12-29T02:38:25.172Z,7.30
2022-12-29T02:41:22.437Z,7.70
2022-12-29T02:44:42.476Z,9.40
2022-12-29T02:47:38.262Z,8.70
2022-12-29T02:50:51.902Z,8.20
2022-12-29T02:53:57.948Z,9.60
2022-12-29T02:56:44.916Z,8.20
2022-12-29T02:59:31.926Z,8.60
2022-12-29T03:02:37.980Z,7.90
2022-12-29T03:05:54.690Z,7.00
2022-12-29T03:08:56.324Z,7.50
2022-12-29T03:12:10.580Z,8.60
2022-12-29T03:15:32.832Z,7.40
2022-12-29T03:18:28.804Z,6.20
2022-12-29T03:21:19.594Z,8.30
2022-12-29T03:24:06.809Z,7.70
2022-12-29T03:26:58.058Z,7.20
2022-12-29T03:29:54.363Z,7.80
2022-12-29T03:32:48.429Z,8.10
2022-12-29T03:35:38.673Z,10.00
2022-12-29T03:38:44.641Z,7.50
2022-12-29T03:41:34.096Z,9.70
2022-12-29T03:44:22.781Z,6.80
2022-12-29T03:47:11.649Z,6.00
2022-12-29T03:49:58.764Z,7.00
2022-12-29T03:52:46.153Z,5.80
2022-12-29T03:55:32.859Z,4.80
2022-12-29T03:58:20.762Z,5.50
2022-12-29T04:01:30.972Z,4.90
2022-12-29T04:04:18.222Z,5.90
2022-12-29T04:07:05.105Z,4.00
2022-12-29T04:09:52.451Z,5.40
2022-12-29T04:12:47.408Z,4.80
2022-12-29T04:15:35.825Z,6.50
2022-12-29T04:18:22.523Z,7.60
2022-12-29T04:21:09.963Z,5.80
2022-12-29T04:23:59.349Z,6.50
2022-12-29T04:26:46.622Z,7.30
2022-12-29T04:32:52.916Z,5.40
2022-12-29T04:35:39.915Z,7.00
2022-12-29T04:38:26.753Z,8.70
2022-12-29T04:41:14.530Z,9.20
2022-12-29T04:44:02.424Z,6.40
2022-12-29T04:47:01.471Z,8.00
2022-12-29T04:50:01.996Z,6.20
2022-12-29T04:52:58.958Z,8.20
2022-12-29T04:55:53.372Z,8.70
2022-12-29T04:58:41.008Z,9.50
2022-12-29T05:01:28.096Z,7.80
2022-12-29T05:04:15.438Z,7.20
2022-12-29T05:07:03.399Z,8.10
2022-12-29T05:09:50.321Z,7.40
2022-12-29T05:12:38.656Z,7.80
2022-12-29T05:15:25.609Z,6.80
2022-12-29T05:18:12.490Z,5.60
2022-12-29T05:20:59.731Z,6.10
2022-12-29T05:23:46.542Z,8.60
2022-12-29T05:26:35.232Z,7.20
2022-12-29T05:29:41.423Z,7.30
2022-12-29T05:32:28.543Z,6.70
2022-12-29T05:35:15.424Z,6.90
2022-12-29T05:38:03.199Z,7.60
2022-12-29T05:40:51.050Z,7.90
2022-12-29T05:43:57.924Z,10.30
2022-12-29T05:47:14.387Z,8.50
2022-12-29T05:50:11.800Z,8.10
2022-12-29T05:53:28.754Z,7.20
2022-12-29T05:56:17.343Z,7.90
2022-12-29T05:59:05.803Z,9.60
2022-12-29T06:01:53.031Z,7.20
2022-12-29T06:04:40.160Z,6.80
2022-12-29T06:07:27.878Z,7.10
2022-12-29T06:10:15.077Z,7.50
2022-12-29T06:13:13.861Z,8.00
2022-12-29T06:16:04.511Z,7.70
2022-12-29T06:18:51.867Z,6.30
2022-12-29T06:21:38.716Z,7.60
2022-12-29T06:24:25.654Z,7.10
2022-12-29T06:27:14.837Z,6.10
2022-12-29T06:30:01.741Z,9.50
2022-12-29T06:32:49.503Z,9.20
2022-12-29T06:35:36.534Z,7.50
2022-12-29T06:38:24.386Z,8.30
2022-12-29T06:41:11.157Z,9.90
2022-12-29T06:44:18.366Z,7.10
2022-12-29T06:47:21.651Z,9.60
2022-12-29T06:50:08.669Z,8.50
2022-12-29T06:52:55.520Z,9.30
2022-12-29T06:55:42.953Z,10.00
2022-12-29T06:58:29.598Z,9.50
2022-12-29T07:01:16.498Z,11.50
2022-12-29T07:04:04.197Z,8.90
2022-12-29T07:06:51.272Z,10.70
2022-12-29T07:09:38.111Z,10.50
2022-12-29T07:12:25.286Z,10.10
2022-12-29T07:15:12.359Z,7.60
2022-12-29T07:17:58.968Z,7.90
2022-12-29T07:20:46.027Z,14.60
2022-12-29T07:23:33.009Z,17.20
2022-12-29T07:26:20.011Z,15.10
2022-12-29T07:29:06.837Z,28.90
2022-12-29T07:31:53.763Z,13.20
2022-12-29T07:34:40.843Z,10.40
2022-12-29T07:37:27.890Z,11.30
2022-12-29T07:40:15.379Z,6.60
2022-12-29T07:43:02.391Z,6.80
2022-12-29T07:46:01.178Z,9.40
2022-12-29T07:48:49.023Z,7.30
2022-12-29T07:51:35.706Z,10.40
2022-12-29T07:54:23.628Z,11.20
2022-12-29T07:57:11.011Z,12.20
2022-12-29T07:59:57.849Z,8.30
2022-12-29T08:02:44.849Z,6.80
2022-12-29T08:05:34.565Z,11.00
2022-12-29T08:08:21.833Z,6.90
2022-12-29T08:11:08.487Z,9.80
2022-12-29T08:13:55.916Z,8.70
2022-12-29T08:16:42.866Z,9.50
2022-12-29T08:19:29.619Z,10.40
2022-12-29T08:22:16.628Z,7.80
2022-12-29T08:25:04.199Z,7.50
2022-12-29T08:27:51.280Z,6.60
2022-12-29T08:30:38.135Z,8.50
2022-12-29T08:33:25.011Z,10.70
2022-12-29T08:36:11.845Z,9.90
2022-12-29T08:38:58.596Z,8.70
2022-12-29T08:41:45.554Z,8.60
2022-12-29T08:44:32.381Z,7.60
2022-12-29T08:47:19.209Z,13.00
2022-12-29T08:50:06.346Z,11.70
2022-12-29T08:52:53.422Z,8.80
2022-12-29T08:55:40.047Z,5.90
2022-12-29T08:58:27.493Z,7.60
2022-12-29T09:01:15.078Z,6.30
2022-12-29T09:04:18.678Z,12.00
2022-12-29T09:07:06.592Z,11.20
2022-12-29T09:09:53.700Z,7.30
2022-12-29T09:12:40.543Z,10.20
2022-12-29T09:15:27.637Z,9.70
2022-12-29T09:18:20.318Z,10.20
2022-12-29T09:21:08.438Z,10.90
2022-12-29T09:23:55.214Z,9.90
2022-12-29T09:26:46.951Z,11.00
2022-12-29T09:32:23.385Z,14.20
2022-12-29T09:35:10.477Z,12.30
2022-12-29T09:37:57.485Z,17.60
2022-12-29T09:40:50.146Z,15.80
2022-12-29T09:43:56.372Z,10.50
2022-12-29T09:46:48.903Z,13.70
2022-12-29T09:49:57.523Z,10.40
2022-12-29T09:53:02.153Z,13.10
2022-12-29T09:55:56.048Z,49.00
2022-12-29T09:59:09.773Z,45.40
2022-12-29T10:02:26.040Z,16.90
2022-12-29T10:05:38.759Z,14.50
2022-12-29T10:08:48.711Z,11.90
2022-12-29T10:11:53.656Z,12.50
2022-12-29T10:15:05.549Z,13.80
2022-12-29T10:18:11.547Z,10.90
2022-12-29T10:21:13.602Z,13.50
2022-12-29T10:24:05.747Z,12.80
2022-12-29T10:26:53.256Z,10.50
2022-12-29T10:30:02.156Z,11.40
2022-12-29T10:33:05.249Z,11.70
2022-12-29T10:35:52.407Z,15.00
2022-12-29T10:38:50.415Z,12.50
2022-12-29T10:42:16.799Z,13.00
2022-12-29T10:45:05.606Z,12.00
2022-12-29T10:48:04.332Z,13.80
2022-12-29T10:50:58.532Z,11.70
2022-12-29T10:54:02.567Z,13.00
2022-12-29T10:57:03.275Z,10.70
2022-12-29T10:59:50.270Z,11.10
2022-12-29T11:03:07.490Z,13.20
2022-12-29T11:06:09.742Z,13.30
2022-12-29T11:08:58.317Z,10.60
2022-12-29T11:11:46.111Z,14.90
2022-12-29T11:14:35.899Z,12.00
2022-12-29T11:17:22.759Z,13.80
2022-12-29T11:20:30.799Z,14.80
2022-12-29T11:23:32.659Z,15.60
2022-12-29T11:29:27.195Z,14.40
2022-12-29T11:32:28.477Z,11.80
2022-12-29T11:35:32.567Z,8.50
2022-12-29T11:38:27.031Z,15.10
2022-12-29T11:41:19.850Z,14.60
2022-12-29T11:44:28.075Z,12.00
2022-12-29T11:47:26.797Z,15.80
2022-12-29T11:50:23.856Z,12.20
2022-12-29T11:53:24.804Z,12.30
2022-12-29T11:56:40.498Z,12.90
2022-12-29T11:59:28.063Z,19.50
2022-12-29T12:02:21.583Z,13.00
2022-12-29T12:05:11.786Z,14.40
2022-12-29T12:08:31.851Z,10.90
2022-12-29T12:11:24.197Z,10.70
2022-12-29T12:14:29.443Z,12.10
2022-12-29T12:17:38.429Z,13.00
2022-12-29T12:20:40.827Z,15.00
2022-12-29T12:23:53.777Z,8.60
2022-12-29T12:26:54.703Z,13.30
2022-12-29T12:30:02.224Z,13.10
2022-12-29T12:32:56.062Z,12.60
2022-12-29T12:36:01.870Z,11.70
2022-12-29T12:39:20.228Z,12.90
2022-12-29T12:42:25.603Z,12.20
2022-12-29T12:45:36.026Z,10.90
2022-12-29T12:48:56.631Z,10.90
2022-12-29T12:52:13.933Z,10.10
2022-12-29T12:55:30.429Z,11.40
2022-12-29T12:58:30.530Z,7.50
2022-12-29T13:01:36.601Z,7.10
2022-12-29T13:04:46.965Z,9.60
2022-12-29T13:07:56.536Z,9.50
2022-12-29T13:10:54.763Z,13.30
2022-12-29T13:14:03.375Z,15.90
2022-12-29T13:17:02.957Z,16.70
2022-12-29T13:19:52.835Z,11.40
2022-12-29T13:22:52.097Z,11.80
2022-12-29T13:25:57.354Z,12.10
2022-12-29T13:28:56.663Z,13.00
2022-12-29T13:32:01.893Z,13.20
2022-12-29T13:35:04.363Z,8.10
2022-12-29T13:38:00.411Z,11.90
2022-12-29T13:40:52.214Z,9.70
2022-12-29T13:43:42.894Z,10.00
2022-12-29T13:46:40.166Z,12.70
2022-12-29T13:49:28.516Z,12.70
2022-12-29T13:52:45.916Z,13.10
2022-12-29T13:55:52.667Z,7.90
2022-12-29T13:59:09.216Z,12.10
2022-12-29T14:02:18.591Z,8.40
2022-12-29T14:05:26.128Z,7.90
2022-12-29T14:08:19.351Z,9.10
2022-12-29T14:11:17.826Z,16.30
2022-12-29T14:14:24.415Z,14.40
2022-12-29T14:17:15.221Z,7.90
2022-12-29T14:20:03.736Z,11.10
2022-12-29T14:23:00.253Z,11.00
2022-12-29T14:26:05.788Z,10.40
2022-12-29T14:28:53.177Z,9.80
2022-12-29T14:31:42.300Z,7.60
2022-12-29T14:34:31.777Z,9.90
2022-12-29T14:37:29.204Z,6.10
2022-12-29T14:40:27.449Z,14.00
2022-12-29T14:43:28.132Z,11.60
2022-12-29T14:46:15.398Z,9.20
2022-12-29T14:49:03.208Z,10.70
2022-12-29T14:51:54.107Z,12.20
2022-12-29T14:55:01.471Z,11.00
2022-12-29T14:57:52.411Z,9.60
2022-12-29T15:00:40.653Z,14.50
2022-12-29T15:03:34.002Z,17.40
2022-12-29T15:06:26.250Z,18.00
2022-12-29T15:09:35.072Z,11.20
2022-12-29T15:12:47.765Z,9.10
2022-12-29T15:15:38.899Z,10.90
2022-12-29T15:18:29.384Z,9.90
2022-12-29T15:21:17.332Z,9.20
2022-12-29T15:24:05.328Z,12.00
2022-12-29T15:26:55.503Z,10.00
2022-12-29T15:29:47.088Z,13.70
2022-12-29T15:32:47.705Z,11.70
2022-12-29T15:35:38.469Z,10.40
2022-12-29T15:38:37.070Z,11.20
2022-12-29T15:42:02.513Z,10.90
2022-12-29T15:44:57.773Z,11.70
2022-12-29T15:47:55.639Z,11.90
2022-12-29T15:50:44.146Z,12.10
2022-12-29T15:53:34.639Z,10.80
2022-12-29T15:56:21.806Z,10.10
2022-12-29T15:59:29.602Z,10.40
2022-12-29T16:02:17.345Z,12.50
2022-12-29T16:05:17.541Z,12.30
2022-12-29T16:08:28.706Z,16.50
2022-12-29T16:11:27.744Z,16.60
2022-12-29T16:14:19.379Z,15.20
2022-12-29T16:17:07.504Z,18.50
2022-12-29T16:20:01.581Z,16.70
2022-12-29T16:22:56.505Z,15.10
2022-12-29T16:25:44.139Z,13.00
2022-12-29T16:28:43.135Z,11.30
2022-12-29T16:31:37.793Z,13.80
2022-12-29T16:34:45.245Z,10.90
2022-12-29T16:37:36.277Z,13.40
2022-12-29T16:40:30.365Z,12.70
2022-12-29T16:43:21.970Z,14.70
2022-12-29T16:46:32.677Z,14.10
2022-12-29T16:49:23.624Z,12.50
2022-12-29T16:52:35.080Z,14.30
2022-12-29T16:55:21.821Z,16.80
2022-12-29T16:58:19.521Z,16.00
2022-12-29T17:01:15.523Z,13.30
2022-12-29T17:04:07.534Z,17.30
2022-12-29T17:06:54.198Z,15.10
2022-12-29T17:09:40.946Z,14.60
2022-12-29T17:12:30.696Z,18.00
2022-12-29T17:15:33.194Z,22.00
2022-12-29T17:18:20.353Z,20.50
2022-12-29T17:21:07.387Z,27.90
2022-12-29T17:23:54.164Z,43.10
2022-12-29T17:26:41.816Z,44.70
2022-12-29T17:29:36.657Z,28.50
2022-12-29T17:32:23.882Z,48.30
2022-12-29T17:35:18.943Z,57.60
2022-12-29T17:38:43.298Z,47.80
2022-12-29T17:41:30.345Z,30.40
2022-12-29T17:44:19.847Z,25.60
2022-12-29T17:47:10.581Z,18.60
2022-12-29T17:49:57.955Z,16.40
2022-12-29T17:52:49.959Z,17.60
2022-12-29T17:55:38.713Z,16.50
2022-12-29T17:58:28.792Z,21.60
2022-12-29T18:01:21.669Z,16.70
2022-12-29T18:04:12.732Z,19.30
2022-12-29T18:06:59.449Z,15.10
2022-12-29T18:09:47.513Z,15.40
2022-12-29T18:12:41.178Z,14.60
2022-12-29T18:15:31.099Z,18.60
2022-12-29T18:18:21.156Z,27.10
2022-12-29T18:21:16.546Z,27.40
2022-12-29T18:24:03.923Z,20.40
2022-12-29T18:26:51.224Z,17.70
2022-12-29T18:29:38.161Z,28.60
2022-12-29T18:32:25.207Z,121.60
2022-12-29T18:35:20.571Z,137.00
2022-12-29T18:38:07.584Z,46.10
2022-12-29T18:40:54.722Z,22.00
2022-12-29T18:43:41.820Z,25.80
2022-12-29T18:46:28.918Z,22.50
2022-12-29T18:49:15.809Z,22.20
2022-12-29T18:52:02.851Z,22.80
2022-12-29T18:54:49.679Z,17.70
2022-12-29T18:57:37.153Z,21.50
2022-12-29T19:00:24.138Z,18.50
2022-12-29T19:03:17.236Z,18.80
2022-12-29T19:06:04.086Z,18.70
2022-12-29T19:08:51.148Z,20.00
2022-12-29T19:11:37.764Z,19.40
2022-12-29T19:14:24.648Z,18.00
2022-12-29T19:17:13.148Z,16.60
2022-12-29T19:20:04.027Z,21.80
2022-12-29T19:22:50.998Z,18.70
2022-12-29T19:25:39.069Z,25.30
2022-12-29T19:28:28.386Z,23.00
2022-12-29T19:31:15.608Z,24.40
2022-12-29T19:34:03.384Z,22.80
2022-12-29T19:36:50.422Z,15.40
2022-12-29T19:39:37.066Z,17.60
2022-12-29T19:42:24.169Z,21.80
2022-12-29T19:45:14.681Z,21.80
2022-12-29T19:48:02.050Z,19.20
2022-12-29T19:50:48.914Z,18.40
2022-12-29T19:53:37.092Z,17.60
2022-12-29T19:56:24.287Z,18.50
2022-12-29T19:59:11.618Z,18.60
2022-12-29T20:01:58.771Z,15.10
2022-12-29T20:04:45.661Z,17.30
2022-12-29T20:07:32.774Z,15.00
2022-12-29T20:10:19.864Z,30.00
2022-12-29T20:13:07.507Z,17.20
2022-12-29T20:16:03.137Z,18.60
2022-12-29T20:18:50.876Z,16.40
2022-12-29T20:21:38.194Z,16.50
2022-12-29T20:24:24.812Z,16.80
2022-12-29T20:27:12.962Z,19.40
2022-12-29T20:30:00.378Z,16.50
2022-12-29T20:32:49.316Z,15.60
2022-12-29T20:35:36.962Z,15.50
2022-12-29T20:38:23.969Z,17.10
2022-12-29T20:41:11.874Z,14.20
2022-12-29T20:43:59.473Z,18.80
2022-12-29T20:46:46.471Z,18.40
2022-12-29T20:49:35.395Z,18.90
2022-12-29T20:52:22.375Z,15.90
2022-12-29T20:55:09.644Z,15.90
2022-12-29T21:01:07.259Z,17.20
2022-12-29T21:03:54.217Z,14.20
2022-12-29T21:06:42.325Z,17.60
2022-12-29T21:09:29.377Z,17.20
2022-12-29T21:12:16.399Z,16.20
2022-12-29T21:15:03.358Z,18.00
2022-12-29T21:17:50.775Z,15.30
2022-12-29T21:20:37.547Z,15.80
2022-12-29T21:23:25.479Z,16.10
2022-12-29T21:26:16.113Z,15.60
2022-12-29T21:29:03.835Z,15.30
2022-12-29T21:31:51.037Z,14.80
2022-12-29T21:34:37.877Z,12.80
2022-12-29T21:37:24.608Z,14.00
2022-12-29T21:40:12.295Z,17.50
2022-12-29T21:42:59.077Z,9.70
2022-12-29T21:45:50.125Z,15.60
2022-12-29T21:48:37.096Z,13.80
2022-12-29T21:51:42.514Z,11.90
2022-12-29T21:54:49.181Z,18.60
2022-12-29T21:57:55.475Z,14.90
2022-12-29T22:01:01.351Z,18.80
2022-12-29T22:04:07.150Z,17.70
2022-12-29T22:07:12.833Z,14.90
2022-12-29T22:10:19.717Z,9.80
2022-12-29T22:13:06.967Z,16.90
2022-12-29T22:15:53.875Z,14.60
2022-12-29T22:18:40.586Z,17.90
2022-12-29T22:21:27.920Z,18.10
2022-12-29T22:24:14.767Z,19.30
2022-12-29T22:27:01.789Z,20.20
2022-12-29T22:29:48.871Z,25.30
2022-12-29T22:32:36.455Z,15.90
2022-12-29T22:35:23.533Z,16.80
2022-12-29T22:38:10.399Z,16.00
2022-12-29T22:41:00.636Z,14.60
2022-12-29T22:43:47.699Z,17.00
2022-12-29T22:46:34.352Z,15.30
2022-12-29T22:49:21.288Z,16.00
2022-12-29T22:52:07.923Z,14.30
2022-12-29T22:54:54.771Z,14.70
2022-12-29T22:57:41.639Z,17.90
2022-12-29T23:00:29.270Z,17.40
2022-12-29T23:03:16.199Z,17.50
2022-12-29T23:06:05.528Z,14.40
2022-12-29T23:08:54.293Z,10.70
2022-12-29T23:11:41.430Z,12.20
2022-12-29T23:14:28.108Z,10.70
2022-12-29T23:17:14.926Z,12.50
2022-12-29T23:20:01.851Z,12.30
2022-12-29T23:22:48.664Z,12.40
2022-12-29T23:25:39.301Z,15.20
2022-12-29T23:28:26.251Z,14.70
2022-12-29T23:31:14.194Z,14.60
2022-12-29T23:34:03.545Z,15.50
2022-12-29T23:36:51.044Z,9.60
2022-12-29T23:39:38.116Z,11.80
2022-12-29T23:42:24.999Z,16.20
2022-12-29T23:45:12.790Z,13.30
2022-12-29T23:47:59.758Z,15.20
2022-12-29T23:50:46.748Z,14.30
2022-12-29T23:53:35.261Z,14.30
2022-12-29T23:56:23.569Z,14.70
2022-12-29T23:59:10.125Z,14.90
